Flight Track Log - Related Links

Times and Time Zones

All times are in EDT time to prevent confusion due to time zone crossing. See the N16112 flight status page for this flight to view local times or setup timezone preferences in your user account.

Time Position Orientation Groundspeed Altitude Reporting Facility
EDT Latitude Longitude Course Direction KTS MPH feet Rate Location/Type
Sun 10:11:55 PM 41.9833 -87.8667 77° East 165 190 2,000  Level Chicago TRACON
Sun 10:12:55 PM 41.9833 -87.8000 90° East 212 244 4,500 2,375 Climbing Chicago TRACON
Sun 10:14:00 PM 42.0351 -87.5309 83° East  Level FlightAware Approximate
Sun 10:15:00 PM 42.0468 -87.4026 83° East  Level FlightAware Approximate
Sun 10:15:07 PM 42.0244 -87.5919 75° East 280 322 9,600  Level Chicago Center
Sun 10:16:00 PM 42.0641 -87.2755 78° East  Level FlightAware Approximate
Sun 10:16:08 PM 42.0422 -87.4847 77° East 291 335 12,200  Level Chicago Center
Sun 10:17:00 PM 42.0835 -87.1488 77° East  Level FlightAware Approximate
Sun 10:17:09 PM 42.0650 -87.3481 77° East 309 356 14,300  Level Chicago Center
Sun 10:18:10 PM 42.0869 -87.2197 77° East 347 399 15,400 1,279 Climbing Chicago Center
Sun 10:19:11 PM 42.1094 -87.0814 78° East 372 428 16,900 1,279 Climbing Chicago Center
Sun 10:20:12 PM 42.1158 -86.9356 87° East 389 448 18,000 1,512 Climbing Chicago Center
Sun 10:21:14 PM 42.1211 -86.7928 87° East 385 443 20,000 1,951 Climbing Chicago Center
Sun 10:22:15 PM 42.1267 -86.6606 87° East 383 441 22,000 1,475 Climbing Chicago Center
Sun 10:23:16 PM 42.1225 -86.5197 92° East 378 435 23,000 492 Climbing Chicago Center
Sun 10:24:17 PM 42.1206 -86.3322 91° East 416 479 23,000  Level Chicago Center
Sun 10:25:18 PM 42.1186 -86.1697 91° East 432 497 23,000  Level Chicago Center
Sun 10:26:20 PM 42.1161 -86.0053 91° East 438 504 23,000  Level Chicago Center
Sun 10:27:21 PM 42.1131 -85.8528 91° East 444 511 23,000  Level Chicago Center
Sun 10:28:22 PM 42.1106 -85.6853 91° East 449 517 23,000  Level Chicago Center
Sun 10:29:23 PM 42.1072 -85.5200 92° East 446 513 23,000  Level Chicago Center
Sun 10:30:24 PM 42.1014 -85.3206 92° East 447 514 23,000  Level Chicago Center
Sun 10:31:28 PM 42.1022 -85.1594 90° East 455 524 23,000  Level Cleveland Center
Sun 10:32:28 PM 42.0983 -84.9914 92° East 455 524 23,000  Level Cleveland Center
Sun 10:33:28 PM 42.0942 -84.8258 92° East 449 517 23,000  Level Cleveland Center
Sun 10:34:28 PM 42.0772 -84.6594 98° East 443 510 23,000  Level Cleveland Center
Sun 10:35:28 PM 42.0411 -84.5006 107° East 443 510 23,000  Level Cleveland Center
Sun 10:36:28 PM 42.0069 -84.3392 106° East 448 516 23,000  Level Cleveland Center
Sun 10:37:28 PM 41.9603 -84.1661 110° East 448 516 23,000  Level Cleveland Center
Sun 10:38:28 PM 41.9256 -84.0078 106° East 448 516 23,000  Level Cleveland Center
Sun 10:39:28 PM 41.8883 -83.8494 107° East 448 516 23,000  Level Cleveland Center
Sun 10:40:28 PM 41.8511 -83.6914 107° East 448 516 23,000 -50 Level Cleveland Center
Sun 10:41:28 PM 41.8136 -83.5308 107° East 448 516 22,900 -800 Descending Cleveland Center
Sun 10:42:28 PM 41.7797 -83.3817 107° East 442 509 21,400 -1,950 Descending Cleveland Center
Sun 10:43:28 PM 41.7439 -83.2325 108° East 429 494 19,000 -2,100 Descending Cleveland Center
Sun 10:44:28 PM 41.7094 -83.0894 108° East 417 480 17,200 -2,050 Descending Cleveland Center
Sun 10:45:28 PM 41.6769 -82.9517 107° East 405 466 14,900 -2,100 Descending Cleveland Center
Sun 10:46:28 PM 41.6442 -82.8200 108° East 385 443 13,000 -2,143 Descending Cleveland Center
Sun 10:46:52 PM 41.6306 -82.7694 110° East 366 421 11,900 -2,222 Descending Cleveland Center
Sun 10:47:22 PM 41.6192 -82.7108 105° East 364 419 11,000 -1,250 Descending Cleveland Center
Sun 10:48:28 PM 41.5842 -82.5681 108° East 354 407 9,900 -524 Descending Cleveland Center
Sun 10:49:28 PM 41.5467 -82.4503 113° Southeast 348 400 9,900 -155 Level Cleveland Center
Sun 10:50:24 PM 41.5042 -82.3658 124° Southeast 276 318 9,600 -923 Descending Cleveland Center
Sun 10:51:25 PM 41.4700 -82.2819 119° Southeast 258 297 8,100 -1,537 Descending Cleveland Center
Sun 10:52:25 PM 41.4336 -82.1978 120° Southeast 248 285 6,500 -1,686 Descending Cleveland Center
Sun 10:53:26 PM 41.4097 -82.1225 113° Southeast 233 268 4,700 -1,770 Descending Cleveland Center
Sun 10:54:27 PM 41.3836 -82.0528 117° Southeast 214 246 2,900 -1,140 Descending Cleveland Center
Sun 10:55:27 PM 41.3614 -81.9831 113° Southeast 172 198 2,400 -500 Descending Cleveland Center

Login

Don't have an account? Register now (free) for customized features, flight alerts, and more!